TimeMST,TemperatureF,Dew PointF,Humidity,Sea Level PressureIn,VisibilityMPH,Wind Direction,Wind SpeedMPH,Gust SpeedMPH,PrecipitationIn,Events,Conditions,WindDirDegrees,DateUTC
12:12 AM,8.6,1.4,73,30.03,10.0,Calm,Calm,-,N/A,,Clear,0,2014-01-23 07:12:00
12:32 AM,10.4,3.2,73,30.03,10.0,Calm,Calm,-,N/A,,Clear,0,2014-01-23 07:32:00
12:52 AM,10.4,3.2,73,30.03,10.0,Calm,Calm,-,N/A,,Clear,0,2014-01-23 07:52:00
1:11 AM,12.2,3.2,67,30.03,10.0,WNW,3.5,-,N/A,,Scattered Clouds,290,2014-01-23 08:11:00
1:32 AM,10.4,3.2,73,30.03,10.0,NE,3.5,-,N/A,,Scattered Clouds,40,2014-01-23 08:32:00
1:52 AM,8.6,1.4,73,30.05,10.0,ESE,4.6,-,N/A,,Scattered Clouds,120,2014-01-23 08:52:00
2:12 AM,8.6,3.2,79,30.06,10.0,Calm,Calm,-,N/A,,Scattered Clouds,0,2014-01-23 09:12:00
2:32 AM,10.4,3.2,73,30.07,10.0,Calm,Calm,-,N/A,,Scattered Clouds,0,2014-01-23 09:32:00
2:52 AM,10.4,3.2,73,30.07,10.0,Calm,Calm,-,N/A,,Scattered Clouds,0,2014-01-23 09:52:00
3:12 AM,8.6,3.2,79,30.07,10.0,Calm,Calm,-,N/A,,Mostly Cloudy,0,2014-01-23 10:12:00
3:32 AM,10.4,5.0,79,30.07,10.0,NNE,3.5,-,N/A,,Mostly Cloudy,30,2014-01-23 10:32:00
3:52 AM,12.2,3.2,67,30.07,10.0,West,5.8,-,N/A,,Overcast,260,2014-01-23 10:52:00
4:11 AM,10.4,5.0,79,30.08,10.0,WNW,5.8,-,N/A,,Overcast,300,2014-01-23 11:11:00
4:32 AM,10.4,5.0,79,30.08,10.0,NW,4.6,-,N/A,,Mostly Cloudy,320,2014-01-23 11:32:00
4:52 AM,12.2,5.0,73,30.09,10.0,North,5.8,-,N/A,,Mostly Cloudy,10,2014-01-23 11:52:00
5:12 AM,14.0,5.0,67,30.10,10.0,NNW,4.6,-,N/A,,Overcast,330,2014-01-23 12:12:00
5:31 AM,12.2,6.8,79,30.11,10.0,WNW,3.5,-,N/A,,Overcast,290,2014-01-23 12:31:00
5:52 AM,12.2,6.8,79,30.13,10.0,NW,6.9,-,N/A,,Overcast,320,2014-01-23 12:52:00
6:11 AM,14.0,6.8,73,30.14,10.0,North,4.6,-,N/A,,Overcast,10,2014-01-23 13:11:00
6:32 AM,14.0,6.8,73,30.15,10.0,NE,3.5,-,N/A,,Overcast,50,2014-01-23 13:32:00
6:52 AM,14.0,6.8,73,30.16,10.0,South,3.5,-,N/A,,Scattered Clouds,170,2014-01-23 13:52:00
7:12 AM,12.2,6.8,79,30.17,10.0,East,3.5,-,N/A,,Clear,80,2014-01-23 14:12:00
7:32 AM,10.4,3.2,73,30.19,10.0,Calm,Calm,-,N/A,,Scattered Clouds,0,2014-01-23 14:32:00
7:52 AM,12.2,5.0,73,30.20,10.0,Calm,Calm,-,N/A,,Mostly Cloudy,0,2014-01-23 14:52:00
8:12 AM,10.4,3.2,73,30.21,10.0,Calm,Calm,-,N/A,,Mostly Cloudy,0,2014-01-23 15:12:00
8:32 AM,12.2,3.2,67,30.21,10.0,Calm,Calm,-,N/A,,Overcast,0,2014-01-23 15:32:00
8:51 AM,12.2,5.0,73,30.21,10.0,NNW,4.6,-,N/A,,Scattered Clouds,330,2014-01-23 15:51:00
9:12 AM,15.8,6.8,68,30.22,10.0,North,3.5,-,N/A,,Overcast,350,2014-01-23 16:12:00
9:32 AM,17.6,6.8,63,30.23,10.0,West,3.5,-,N/A,,Overcast,270,2014-01-23 16:32:00
9:52 AM,19.4,8.6,63,30.24,10.0,Calm,Calm,-,N/A,,Mostly Cloudy,0,2014-01-23 16:52:00
10:12 AM,19.4,10.4,68,30.26,10.0,WSW,3.5,-,N/A,,Overcast,250,2014-01-23 17:12:00
10:32 AM,19.4,10.4,68,30.27,10.0,Calm,Calm,-,N/A,,Overcast,0,2014-01-23 17:32:00
10:52 AM,23.0,10.4,59,30.28,10.0,Calm,Calm,-,N/A,,Overcast,0,2014-01-23 17:52:00
11:12 AM,23.0,10.4,59,30.28,10.0,SSW,3.5,-,N/A,,Overcast,200,2014-01-23 18:12:00
11:32 AM,24.8,10.4,54,30.28,10.0,SSE,4.6,-,N/A,,Overcast,160,2014-01-23 18:32:00
11:51 AM,24.8,12.2,59,30.28,10.0,SSE,8.1,-,N/A,,Scattered Clouds,150,2014-01-23 18:51:00
12:11 PM,24.8,10.4,54,30.28,10.0,SSE,8.1,-,N/A,,Scattered Clouds,160,2014-01-23 19:11:00
12:32 PM,24.8,14.0,64,30.27,10.0,SE,8.1,-,N/A,,Scattered Clouds,140,2014-01-23 19:32:00
12:52 PM,24.8,14.0,64,30.27,10.0,ESE,9.2,-,N/A,,Clear,120,2014-01-23 19:52:00
1:12 PM,26.6,15.8,64,30.28,10.0,ESE,9.2,-,N/A,,Clear,120,2014-01-23 20:12:00
1:32 PM,26.6,15.8,64,30.28,10.0,ESE,9.2,-,N/A,,Clear,120,2014-01-23 20:32:00
1:51 PM,26.6,15.8,64,30.28,10.0,ESE,8.1,-,N/A,,Clear,120,2014-01-23 20:51:00
2:12 PM,26.6,15.8,64,30.28,10.0,SE,8.1,-,N/A,,Clear,130,2014-01-23 21:12:00
2:32 PM,26.6,17.6,69,30.28,10.0,SSE,10.4,-,N/A,,Clear,150,2014-01-23 21:32:00
2:52 PM,26.6,17.6,69,30.29,10.0,SE,9.2,-,N/A,,Clear,140,2014-01-23 21:52:00
3:12 PM,26.6,17.6,69,30.29,10.0,SSE,8.1,-,N/A,,Clear,150,2014-01-23 22:12:00
3:32 PM,24.8,17.6,74,30.29,10.0,SSE,9.2,-,N/A,,Clear,150,2014-01-23 22:32:00
3:52 PM,24.8,17.6,74,30.30,10.0,SE,8.1,-,N/A,,Clear,140,2014-01-23 22:52:00
4:12 PM,24.8,17.6,74,30.31,10.0,SE,6.9,-,N/A,,Clear,130,2014-01-23 23:12:00
4:32 PM,23.0,15.8,74,30.31,10.0,ESE,8.1,-,N/A,,Clear,120,2014-01-23 23:32:00
4:52 PM,21.2,14.0,74,30.32,10.0,ESE,8.1,-,N/A,,Clear,120,2014-01-23 23:52:00
5:12 PM,17.6,14.0,86,30.33,10.0,ESE,6.9,-,N/A,,Clear,120,2014-01-24 00:12:00
5:32 PM,15.8,12.2,86,30.33,10.0,ESE,8.1,-,N/A,,Clear,110,2014-01-24 00:32:00
5:52 PM,15.8,12.2,86,30.34,10.0,ESE,6.9,-,N/A,,Clear,110,2014-01-24 00:52:00
6:12 PM,15.8,12.2,86,30.35,10.0,East,4.6,-,N/A,,Clear,90,2014-01-24 01:12:00
6:32 PM,10.4,6.8,85,30.36,10.0,Calm,Calm,-,N/A,,Clear,0,2014-01-24 01:32:00
6:51 PM,12.2,8.6,85,30.37,10.0,Calm,Calm,-,N/A,,Clear,0,2014-01-24 01:51:00
7:12 PM,8.6,5.0,85,30.38,10.0,Calm,Calm,-,N/A,,Clear,0,2014-01-24 02:12:00
7:32 PM,8.6,3.2,79,30.39,10.0,Calm,Calm,-,N/A,,Clear,0,2014-01-24 02:32:00
7:51 PM,6.8,3.2,85,30.39,10.0,Calm,Calm,-,N/A,,Clear,0,2014-01-24 02:51:00
8:12 PM,8.6,3.2,79,30.40,10.0,North,5.8,-,N/A,,Clear,350,2014-01-24 03:12:00
8:32 PM,8.6,5.0,85,30.41,10.0,NNW,6.9,-,N/A,,Clear,330,2014-01-24 03:32:00
8:52 PM,8.6,1.4,73,30.41,10.0,NNW,4.6,-,N/A,,Clear,330,2014-01-24 03:52:00
9:12 PM,6.8,1.4,79,30.42,10.0,North,5.8,-,N/A,,Clear,10,2014-01-24 04:12:00
9:32 PM,8.6,3.2,79,30.43,10.0,NNW,9.2,-,N/A,,Clear,330,2014-01-24 04:32:00
9:51 PM,8.6,3.2,79,30.44,10.0,NW,8.1,-,N/A,,Clear,320,2014-01-24 04:51:00
10:12 PM,8.6,3.2,79,30.44,10.0,NNW,10.4,-,N/A,,Clear,330,2014-01-24 05:12:00
10:31 PM,6.8,3.2,85,30.45,10.0,NW,9.2,-,N/A,,Clear,320,2014-01-24 05:31:00
10:51 PM,6.8,3.2,85,30.45,10.0,NNW,6.9,-,N/A,,Clear,330,2014-01-24 05:51:00
11:12 PM,5.0,1.4,85,30.45,10.0,NNW,8.1,-,N/A,,Clear,330,2014-01-24 06:12:00
11:32 PM,6.8,3.2,85,30.45,10.0,North,9.2,-,N/A,,Clear,350,2014-01-24 06:32:00
11:52 PM,8.6,3.2,79,30.45,10.0,NNW,9.2,-,N/A,,Clear,330,2014-01-24 06:52:00